Time;durP1;ratioP1;P1;durP2;ratioP2;P2;SDS_P1;SDS_P2;PMS_P1;PMS_P2;Temp;Humidity;BMP_temperature;BMP_pressure;BME280_temperature;BME280_humidity;BME280_pressure;Samples;Min_cycle;Max_cycle;Signal;HPM_P1;HPM_P2
2022/07/11 00:01:27;;;;;;;4.60;3.92;;;;;;;;;;5110983;27;20043;-48
2022/07/11 00:03:52;;;;;;;2.38;1.92;;;;;;;;;;5113930;27;20382;-52
2022/07/11 00:06:17;;;;;;;7.93;1.77;;;;;;;;;;5107222;27;20127;-53
2022/07/11 00:08:43;;;;;;;4.88;1.90;;;;;;;;;;5116066;27;20032;-49
2022/07/11 00:11:09;;;;;;;1.88;1.65;;;;;;;;;;5113444;27;20039;-49
2022/07/11 00:13:34;;;;;;;6.60;2.45;;;;;;;;;;5108640;27;20040;-48
2022/07/11 00:15:59;;;;;;;3.85;1.83;;;;;;;;;;5116514;27;20043;-52
2022/07/11 00:18:25;;;;;;;2.20;1.58;;;;;;;;;;5110246;27;20163;-51
2022/07/11 00:20:50;;;;;;;1.88;1.55;;;;;;;;;;5115892;27;20493;-53
2022/07/11 00:23:16;;;;;;;3.53;1.65;;;;;;;;;;5109745;27;20047;-52
2022/07/11 00:25:41;;;;;;;2.13;1.52;;;;;;;;;;5115204;27;20146;-52
2022/07/11 00:28:07;;;;;;;3.60;2.10;;;;;;;;;;5112880;27;20114;-49
2022/07/11 00:30:33;;;;;;;8.77;2.92;;;;;;;;;;5114549;28;20066;-50
2022/07/11 00:32:58;;;;;;;2.10;1.35;;;;;;;;;;5117422;27;20514;-48
2022/07/11 00:35:23;;;;;;;7.85;2.83;;;;;;;;;;5115397;27;20087;-49
2022/07/11 00:37:49;;;;;;;3.80;2.35;;;;;;;;;;5116598;27;20047;-47
2022/07/11 00:40:14;;;;;;;3.13;1.88;;;;;;;;;;5098004;27;20055;-51
2022/07/11 00:42:40;;;;;;;3.40;2.55;;;;;;;;;;5114181;27;20036;-52
2022/07/11 00:45:06;;;;;;;2.58;2.17;;;;;;;;;;5117321;27;20048;-51
2022/07/11 00:47:31;;;;;;;12.88;2.13;;;;;;;;;;5118311;27;20040;-49
2022/07/11 00:49:57;;;;;;;2.58;1.88;;;;;;;;;;5118130;27;20047;-50
2022/07/11 00:52:23;;;;;;;2.83;1.50;;;;;;;;;;5114630;27;20047;-49
2022/07/11 00:54:49;;;;;;;3.53;1.88;;;;;;;;;;5113607;28;20046;-49
2022/07/11 00:57:14;;;;;;;3.13;1.73;;;;;;;;;;5112299;28;20437;-52
2022/07/11 00:59:39;;;;;;;3.40;1.55;;;;;;;;;;5115813;27;20145;-49
2022/07/11 01:02:05;;;;;;;9.63;2.28;;;;;;;;;;5109993;27;20047;-51
2022/07/11 01:04:30;;;;;;;2.58;1.58;;;;;;;;;;5113779;27;20430;-49
2022/07/11 01:06:56;;;;;;;6.35;2.28;;;;;;;;;;5113351;27;20130;-54
2022/07/11 01:09:21;;;;;;;2.80;1.75;;;;;;;;;;5112811;27;20116;-50
2022/07/11 01:11:46;;;;;;;1.65;1.48;;;;;;;;;;5114159;27;20054;-53
2022/07/11 01:14:12;;;;;;;2.83;1.30;;;;;;;;;;5114502;27;20943;-53
2022/07/11 01:16:37;;;;;;;1.80;1.48;;;;;;;;;;5109390;27;20086;-51
2022/07/11 01:19:03;;;;;;;2.55;1.95;;;;;;;;;;5113019;27;20044;-53
2022/07/11 01:21:32;;;;;;;2.22;1.13;;;;;;;;;;5110749;27;20467;-48
2022/07/11 01:23:59;;;;;;;2.70;1.50;;;;;;;;;;5113267;27;20043;-51
2022/07/11 01:26:25;;;;;;;3.70;2.15;;;;;;;;;;5111998;27;20067;-48
2022/07/11 01:28:51;;;;;;;3.05;1.75;;;;;;;;;;5120530;27;20063;-52
2022/07/11 01:31:17;;;;;;;1.98;1.38;;;;;;;;;;5114122;27;20051;-50
2022/07/11 01:33:43;;;;;;;17.10;1.80;;;;;;;;;;5114849;28;20522;-52
2022/07/11 01:36:08;;;;;;;4.43;1.88;;;;;;;;;;5113916;27;20177;-52
2022/07/11 01:38:34;;;;;;;2.13;1.52;;;;;;;;;;5118272;27;20050;-49
2022/07/11 01:40:59;;;;;;;2.00;1.38;;;;;;;;;;5116578;27;20417;-49
2022/07/11 01:43:24;;;;;;;1.95;1.25;;;;;;;;;;5115299;27;20040;-51
2022/07/11 01:45:53;;;;;;;3.08;2.58;;;;;;;;;;5117108;28;20046;-50
2022/07/11 01:48:20;;;;;;;1.88;1.38;;;;;;;;;;5116917;27;20051;-52
2022/07/11 01:50:45;;;;;;;2.13;0.93;;;;;;;;;;5115550;27;20138;-51
2022/07/11 01:53:11;;;;;;;2.78;1.63;;;;;;;;;;5113638;27;20063;-48
2022/07/11 01:55:36;;;;;;;2.20;1.70;;;;;;;;;;5118334;27;20818;-51
2022/07/11 01:58:02;;;;;;;3.47;2.58;;;;;;;;;;5116975;27;20478;-51
2022/07/11 02:00:27;;;;;;;4.95;2.33;;;;;;;;;;5116800;27;20051;-49
2022/07/11 02:02:53;;;;;;;7.70;1.90;;;;;;;;;;5115027;27;20166;-47
2022/07/11 02:05:19;;;;;;;3.03;1.92;;;;;;;;;;5093441;28;20066;-50
2022/07/11 02:10:29;;;;;;;1.25;1.10;;;;;;;;;;5112559;27;20046;-52
2022/07/11 02:12:56;;;;;;;5.50;1.75;;;;;;;;;;5118567;27;20043;-52
2022/07/11 02:15:21;;;;;;;1.73;1.50;;;;;;;;;;5114720;27;20150;-49
2022/07/11 02:17:46;;;;;;;2.13;1.55;;;;;;;;;;5118895;27;20131;-47
2022/07/11 02:20:12;;;;;;;2.65;2.10;;;;;;;;;;5115369;27;20047;-47
2022/07/11 02:22:38;;;;;;;2.13;1.92;;;;;;;;;;5117699;27;20070;-50
2022/07/11 02:25:03;;;;;;;2.78;1.83;;;;;;;;;;5096692;28;20035;-50
2022/07/11 02:27:28;;;;;;;3.25;1.85;;;;;;;;;;5117375;27;20039;-48
2022/07/11 02:29:54;;;;;;;4.80;2.35;;;;;;;;;;5114517;28;20996;-51
2022/07/11 02:32:19;;;;;;;2.53;1.77;;;;;;;;;;5117063;27;20055;-53
2022/07/11 02:34:45;;;;;;;5.65;2.13;;;;;;;;;;5118326;27;20434;-52
2022/07/11 02:37:10;;;;;;;5.90;2.08;;;;;;;;;;5122024;27;20190;-49
2022/07/11 02:39:38;;;;;;;3.67;1.83;;;;;;;;;;5114499;27;20080;-53
2022/07/11 02:42:04;;;;;;;1.73;1.20;;;;;;;;;;5114728;27;20055;-48
2022/07/11 02:44:29;;;;;;;1.60;1.45;;;;;;;;;;5118418;27;20043;-49
2022/07/11 02:46:55;;;;;;;3.92;2.25;;;;;;;;;;5115277;28;20039;-50
2022/07/11 02:49:20;;;;;;;3.05;1.38;;;;;;;;;;5113296;27;20410;-50
2022/07/11 02:51:46;;;;;;;2.45;1.42;;;;;;;;;;5119617;27;20039;-53
2022/07/11 02:54:12;;;;;;;1.98;1.80;;;;;;;;;;5110944;27;20087;-51
2022/07/11 02:56:38;;;;;;;2.75;1.85;;;;;;;;;;5114799;27;20047;-53
2022/07/11 02:59:03;;;;;;;2.63;1.95;;;;;;;;;;5114702;27;20061;-53
2022/07/11 03:01:28;;;;;;;2.85;1.52;;;;;;;;;;5115066;27;20160;-51
2022/07/11 03:03:53;;;;;;;2.05;1.40;;;;;;;;;;5115243;27;20474;-50
2022/07/11 03:06:19;;;;;;;2.40;1.63;;;;;;;;;;5116077;27;20406;-51
2022/07/11 03:08:44;;;;;;;4.15;1.83;;;;;;;;;;5113327;27;20039;-49
2022/07/11 03:11:10;;;;;;;2.13;1.92;;;;;;;;;;5112361;27;20078;-50
2022/07/11 03:13:35;;;;;;;1.80;1.48;;;;;;;;;;5113615;27;20047;-51
2022/07/11 03:16:01;;;;;;;2.65;1.75;;;;;;;;;;5114540;27;20043;-54
2022/07/11 03:18:27;;;;;;;2.45;1.80;;;;;;;;;;5115229;27;20047;-50
2022/07/11 03:20:53;;;;;;;3.80;2.08;;;;;;;;;;5116480;27;20047;-52
2022/07/11 03:23:18;;;;;;;1.58;1.23;;;;;;;;;;5115468;28;20050;-52
2022/07/11 03:25:44;;;;;;;1.75;1.58;;;;;;;;;;5116070;27;20048;-53
2022/07/11 03:28:09;;;;;;;2.53;1.98;;;;;;;;;;5114082;27;20082;-50
2022/07/11 03:30:34;;;;;;;9.93;1.48;;;;;;;;;;5116207;27;20131;-50
2022/07/11 03:33:00;;;;;;;3.00;2.13;;;;;;;;;;5108682;27;20043;-47
2022/07/11 03:35:40;;;;;;;7.25;2.50;;;;;;;;;;5116368;27;20039;-53
2022/07/11 03:38:06;;;;;;;2.03;1.63;;;;;;;;;;5116666;28;20482;-49
2022/07/11 03:40:31;;;;;;;3.08;2.00;;;;;;;;;;5114744;27;20042;-48
2022/07/11 03:42:57;;;;;;;1.40;1.23;;;;;;;;;;5114463;27;20682;-49
2022/07/11 03:45:22;;;;;;;2.13;1.08;;;;;;;;;;5113296;27;20386;-51
2022/07/11 03:47:48;;;;;;;1.77;1.58;;;;;;;;;;5114737;28;20651;-52
2022/07/11 03:50:14;;;;;;;5.28;1.70;;;;;;;;;;5113059;27;20047;-52
2022/07/11 03:52:39;;;;;;;2.92;2.13;;;;;;;;;;5112676;27;20062;-51
2022/07/11 03:55:05;;;;;;;2.72;1.85;;;;;;;;;;5115511;27;20128;-51
2022/07/11 03:57:30;;;;;;;6.45;1.88;;;;;;;;;;5116676;27;20146;-54
2022/07/11 03:59:56;;;;;;;13.30;2.42;;;;;;;;;;5110319;27;20115;-48
2022/07/11 04:02:21;;;;;;;2.70;1.75;;;;;;;;;;5113654;27;20058;-50
2022/07/11 04:04:47;;;;;;;7.13;1.80;;;;;;;;;;5119349;27;20596;-51
2022/07/11 04:07:13;;;;;;;3.08;1.35;;;;;;;;;;5112803;28;20039;-52
2022/07/11 04:09:38;;;;;;;3.00;1.98;;;;;;;;;;5114657;27;20035;-51
2022/07/11 04:12:04;;;;;;;1.48;1.35;;;;;;;;;;5110724;27;20038;-51
2022/07/11 04:14:29;;;;;;;2.13;1.52;;;;;;;;;;5114632;27;20511;-54
2022/07/11 04:16:55;;;;;;;4.72;1.48;;;;;;;;;;5114682;27;20050;-52
2022/07/11 04:19:20;;;;;;;4.22;1.90;;;;;;;;;;5115221;27;20028;-53
2022/07/11 04:21:45;;;;;;;4.13;1.80;;;;;;;;;;5115511;27;20455;-50
2022/07/11 04:24:11;;;;;;;2.47;1.83;;;;;;;;;;5113419;27;20043;-49
2022/07/11 04:26:36;;;;;;;8.60;2.33;;;;;;;;;;5114136;27;20040;-51
2022/07/11 04:29:02;;;;;;;4.50;2.50;;;;;;;;;;5111000;27;20046;-50
2022/07/11 04:31:28;;;;;;;3.17;1.92;;;;;;;;;;5115506;27;20136;-49
2022/07/11 04:33:53;;;;;;;1.67;1.48;;;;;;;;;;5114060;28;20103;-52
2022/07/11 04:36:18;;;;;;;1.77;1.42;;;;;;;;;;5116198;27;20043;-52
2022/07/11 04:38:44;;;;;;;7.38;1.70;;;;;;;;;;5114503;27;20112;-49
2022/07/11 04:41:09;;;;;;;1.38;1.17;;;;;;;;;;5112772;28;20039;-47
2022/07/11 04:43:36;;;;;;;2.22;1.73;;;;;;;;;;5112160;27;20035;-49
2022/07/11 04:46:04;;;;;;;1.90;1.00;;;;;;;;;;5110412;28;20052;-52
2022/07/11 04:48:30;;;;;;;3.35;1.70;;;;;;;;;;5111263;27;20092;-50
2022/07/11 04:50:55;;;;;;;3.63;2.42;;;;;;;;;;5110679;27;20043;-52
2022/07/11 04:53:21;;;;;;;3.85;1.92;;;;;;;;;;5114806;27;20043;-49
2022/07/11 04:55:46;;;;;;;5.05;1.85;;;;;;;;;;5114104;27;20522;-51
2022/07/11 04:58:11;;;;;;;3.13;1.88;;;;;;;;;;5110829;27;20047;-52
2022/07/11 05:00:36;;;;;;;2.00;1.27;;;;;;;;;;5109882;28;20151;-51
2022/07/11 05:03:02;;;;;;;5.55;1.95;;;;;;;;;;5112841;27;20130;-50
2022/07/11 05:05:27;;;;;;;2.97;1.50;;;;;;;;;;5110225;27;20040;-52
2022/07/11 05:07:53;;;;;;;3.33;1.30;;;;;;;;;;5110820;28;20032;-53
2022/07/11 05:10:18;;;;;;;1.60;1.23;;;;;;;;;;5110215;27;20043;-49
2022/07/11 05:12:44;;;;;;;5.68;3.30;;;;;;;;;;5114448;27;20123;-49
2022/07/11 05:15:10;;;;;;;4.78;4.18;;;;;;;;;;5113586;27;20398;-48
2022/07/11 05:17:35;;;;;;;2.90;2.22;;;;;;;;;;5113963;27;20259;-51
2022/07/11 05:20:00;;;;;;;7.68;2.85;;;;;;;;;;5111876;27;20067;-53
2022/07/11 05:22:26;;;;;;;13.63;4.38;;;;;;;;;;5116389;27;20040;-49
2022/07/11 05:24:52;;;;;;;3.10;2.10;;;;;;;;;;5113170;27;20039;-50
2022/07/11 05:27:17;;;;;;;1.83;1.42;;;;;;;;;;5113320;28;20043;-53
2022/07/11 05:29:42;;;;;;;2.28;1.73;;;;;;;;;;5113817;27;20107;-50
2022/07/11 05:32:08;;;;;;;1.95;1.33;;;;;;;;;;5112548;27;20031;-50
2022/07/11 05:34:33;;;;;;;3.35;2.28;;;;;;;;;;5111685;28;20403;-52
2022/07/11 05:36:58;;;;;;;3.33;2.63;;;;;;;;;;5108754;27;20133;-49
2022/07/11 05:39:24;;;;;;;2.33;1.85;;;;;;;;;;5115603;27;20039;-49
2022/07/11 05:41:51;;;;;;;13.48;2.60;;;;;;;;;;5107697;27;20039;-46
2022/07/11 05:44:17;;;;;;;11.20;2.75;;;;;;;;;;5113483;28;20052;-47
2022/07/11 05:46:43;;;;;;;5.55;2.13;;;;;;;;;;5113685;27;20070;-47
2022/07/11 05:49:08;;;;;;;6.35;3.33;;;;;;;;;;5113169;28;20043;-48
2022/07/11 05:51:34;;;;;;;9.30;2.20;;;;;;;;;;5109741;28;20135;-48
2022/07/11 05:53:59;;;;;;;10.10;3.83;;;;;;;;;;5112389;27;20047;-50
2022/07/11 05:56:25;;;;;;;6.03;3.80;;;;;;;;;;5113375;27;20055;-48
2022/07/11 05:58:51;;;;;;;6.50;2.47;;;;;;;;;;5114162;27;20705;-49
2022/07/11 06:01:17;;;;;;;9.73;2.65;;;;;;;;;;5108514;27;20051;-48
2022/07/11 06:03:42;;;;;;;4.93;1.10;;;;;;;;;;5111621;27;20047;-46
2022/07/11 06:06:07;;;;;;;5.13;2.17;;;;;;;;;;5110091;27;20494;-49
2022/07/11 06:08:42;;;;;;;2.50;1.75;;;;;;;;;;5110272;27;20039;-49
2022/07/11 06:11:11;;;;;;;5.13;1.60;;;;;;;;;;5111556;28;20074;-48
2022/07/11 06:13:37;;;;;;;2.60;1.95;;;;;;;;;;5112836;27;20078;-50
2022/07/11 06:16:03;;;;;;;4.15;2.58;;;;;;;;;;5110212;27;20132;-47
2022/07/11 06:18:28;;;;;;;11.77;2.85;;;;;;;;;;5115679;27;20039;-50
2022/07/11 06:20:53;;;;;;;8.63;5.68;;;;;;;;;;5112204;27;20043;-50
2022/07/11 06:23:19;;;;;;;9.90;7.10;;;;;;;;;;5117522;27;20100;-50
2022/07/11 06:25:44;;;;;;;14.93;5.78;;;;;;;;;;5116582;28;20562;-48
2022/07/11 06:28:09;;;;;;;13.73;3.25;;;;;;;;;;5114288;27;20049;-52
2022/07/11 06:30:36;;;;;;;29.20;3.45;;;;;;;;;;5115107;27;20502;-47
2022/07/11 06:33:02;;;;;;;6.13;3.38;;;;;;;;;;5112787;27;20040;-48
2022/07/11 06:35:27;;;;;;;8.77;4.82;;;;;;;;;;5113114;27;20446;-51
2022/07/11 06:37:52;;;;;;;11.15;4.30;;;;;;;;;;5114713;27;20055;-50
2022/07/11 06:40:18;;;;;;;5.60;4.38;;;;;;;;;;5114364;28;20044;-50
2022/07/11 06:42:43;;;;;;;13.90;5.05;;;;;;;;;;5110962;28;20043;-53
2022/07/11 06:45:09;;;;;;;7.28;3.75;;;;;;;;;;5112007;27;20039;-50
2022/07/11 06:47:34;;;;;;;13.73;4.13;;;;;;;;;;5113449;27;20187;-51
2022/07/11 06:49:59;;;;;;;12.45;4.93;;;;;;;;;;5108253;27;20046;-46
2022/07/11 06:52:25;;;;;;;9.77;3.42;;;;;;;;;;5110459;27;20051;-49
2022/07/11 06:54:50;;;;;;;14.10;3.88;;;;;;;;;;5112402;27;20081;-47
2022/07/11 06:57:15;;;;;;;19.95;5.30;;;;;;;;;;5111689;28;20083;-46
2022/07/11 06:59:41;;;;;;;10.90;6.93;;;;;;;;;;5114819;27;20129;-51
2022/07/11 07:02:06;;;;;;;6.65;5.72;;;;;;;;;;5117715;27;20122;-51
2022/07/11 07:04:31;;;;;;;17.13;7.47;;;;;;;;;;5115891;27;20043;-49
2022/07/11 07:06:58;;;;;;;7.47;5.85;;;;;;;;;;5111592;27;20129;-49
2022/07/11 07:09:24;;;;;;;13.48;8.82;;;;;;;;;;5109561;27;20040;-47
2022/07/11 07:11:49;;;;;;;13.52;8.57;;;;;;;;;;5114739;27;20700;-49
2022/07/11 07:14:14;;;;;;;12.38;8.43;;;;;;;;;;5114631;27;20499;-49
2022/07/11 07:16:40;;;;;;;20.42;10.25;;;;;;;;;;5112391;27;20546;-50
2022/07/11 07:19:05;;;;;;;21.80;12.90;;;;;;;;;;5114881;28;20047;-48
2022/07/11 07:21:30;;;;;;;17.77;11.50;;;;;;;;;;5115035;28;20498;-49
2022/07/11 07:23:56;;;;;;;10.35;7.15;;;;;;;;;;5093467;27;20080;-51
2022/07/11 07:26:21;;;;;;;26.25;8.60;;;;;;;;;;5111039;27;20110;-49
2022/07/11 07:28:46;;;;;;;8.93;2.67;;;;;;;;;;5114417;27;20047;-50
2022/07/11 07:31:12;;;;;;;4.20;3.47;;;;;;;;;;5114318;27;20065;-49
2022/07/11 07:33:37;;;;;;;6.47;4.93;;;;;;;;;;5093066;28;20043;-50
2022/07/11 07:36:03;;;;;;;11.52;5.18;;;;;;;;;;5109181;27;20046;-50
2022/07/11 07:38:28;;;;;;;7.40;3.40;;;;;;;;;;5111786;27;20080;-49
2022/07/11 07:40:54;;;;;;;13.38;5.85;;;;;;;;;;5111974;27;20051;-50
2022/07/11 07:43:19;;;;;;;7.15;4.88;;;;;;;;;;5114452;27;20112;-48
2022/07/11 07:45:45;;;;;;;6.78;3.58;;;;;;;;;;5111274;27;20035;-50
2022/07/11 07:48:10;;;;;;;9.23;4.47;;;;;;;;;;5113008;27;20043;-51
2022/07/11 07:50:36;;;;;;;4.20;3.53;;;;;;;;;;5113755;27;20636;-51
2022/07/11 07:53:01;;;;;;;10.85;3.92;;;;;;;;;;5109665;27;20507;-48
2022/07/11 07:55:26;;;;;;;6.60;4.30;;;;;;;;;;5111639;27;20071;-50
2022/07/11 07:57:51;;;;;;;4.10;3.20;;;;;;;;;;5110369;28;20043;-48
2022/07/11 08:03:05;;;;;;;15.63;2.83;;;;;;;;;;5113699;27;20099;-47
2022/07/11 08:05:31;;;;;;;2.55;2.05;;;;;;;;;;5112872;27;20092;-47
2022/07/11 08:07:56;;;;;;;2.35;1.65;;;;;;;;;;5109511;27;20043;-52
2022/07/11 08:10:21;;;;;;;2.88;1.83;;;;;;;;;;5115478;27;20047;-48
2022/07/11 08:12:47;;;;;;;6.35;3.33;;;;;;;;;;5114025;27;20043;-48
2022/07/11 08:15:12;;;;;;;5.80;3.60;;;;;;;;;;5112530;27;20055;-51
2022/07/11 08:17:37;;;;;;;11.93;9.27;;;;;;;;;;5117617;27;20035;-47
2022/07/11 08:20:03;;;;;;;8.25;7.35;;;;;;;;;;5114679;27;20147;-48
2022/07/11 08:22:29;;;;;;;10.32;6.70;;;;;;;;;;5115694;28;20059;-52
2022/07/11 08:24:54;;;;;;;6.80;5.50;;;;;;;;;;5115472;27;20167;-53
2022/07/11 08:27:21;;;;;;;7.22;5.78;;;;;;;;;;5112060;27;20130;-49
2022/07/11 08:29:46;;;;;;;8.45;5.05;;;;;;;;;;5111507;27;20039;-49
2022/07/11 08:32:12;;;;;;;37.17;20.27;;;;;;;;;;5113658;28;20515;-49
2022/07/11 08:34:37;;;;;;;6.60;4.30;;;;;;;;;;5113305;27;20051;-52
2022/07/11 08:37:03;;;;;;;5.88;3.30;;;;;;;;;;5111826;27;20039;-50
2022/07/11 08:39:28;;;;;;;3.58;2.65;;;;;;;;;;5113311;27;20051;-49
2022/07/11 08:41:54;;;;;;;7.50;2.28;;;;;;;;;;5114592;27;20055;-48
2022/07/11 08:44:19;;;;;;;5.03;2.33;;;;;;;;;;5110066;27;20055;-51
2022/07/11 08:46:45;;;;;;;5.55;2.13;;;;;;;;;;5106732;27;20130;-49
2022/07/11 08:49:13;;;;;;;3.70;2.08;;;;;;;;;;5111425;27;20044;-50
2022/07/11 08:51:39;;;;;;;8.50;2.22;;;;;;;;;;5114565;27;20098;-51
2022/07/11 08:54:04;;;;;;;1.65;1.08;;;;;;;;;;5113774;28;20134;-51
2022/07/11 08:56:30;;;;;;;1.67;0.95;;;;;;;;;;5113459;28;20619;-50
2022/07/11 08:58:58;;;;;;;3.35;1.33;;;;;;;;;;5111456;28;20047;-48
2022/07/11 09:01:33;;;;;;;1.13;0.73;;;;;;;;;;5112218;27;20316;-48
2022/07/11 09:03:59;;;;;;;8.70;1.88;;;;;;;;;;5113717;27;20110;-51
2022/07/11 09:06:25;;;;;;;2.17;1.48;;;;;;;;;;5113146;27;20509;-49
2022/07/11 09:08:50;;;;;;;11.07;2.58;;;;;;;;;;5116386;27;20536;-45
2022/07/11 09:11:15;;;;;;;3.13;1.67;;;;;;;;;;5106734;27;20043;-48
2022/07/11 09:13:41;;;;;;;0.85;0.65;;;;;;;;;;5114998;27;20058;-47
2022/07/11 09:16:07;;;;;;;1.75;1.05;;;;;;;;;;5111600;27;20135;-48
2022/07/11 09:18:40;;;;;;;2.13;1.02;;;;;;;;;;5114237;27;20043;-52
2022/07/11 09:26:39;;;;;;;1.85;1.40;;;;;;;;;;5112425;27;20144;-47
2022/07/11 09:29:14;;;;;;;1.55;1.00;;;;;;;;;;5110668;27;20043;-49
2022/07/11 09:31:40;;;;;;;5.75;1.88;;;;;;;;;;5108865;27;20062;-50
2022/07/11 09:34:08;;;;;;;1.27;0.77;;;;;;;;;;5109235;28;20036;-46
2022/07/11 09:36:35;;;;;;;2.40;1.48;;;;;;;;;;5110850;27;20137;-49
2022/07/11 09:39:02;;;;;;;2.95;1.40;;;;;;;;;;5113363;27;20047;-52
2022/07/11 09:41:30;;;;;;;1.67;1.10;;;;;;;;;;5110420;27;20054;-47
2022/07/11 09:44:05;;;;;;;2.33;1.38;;;;;;;;;;5108006;27;20054;-47
2022/07/11 09:46:30;;;;;;;2.35;1.58;;;;;;;;;;5109019;27;20101;-49
2022/07/11 09:48:56;;;;;;;1.40;0.93;;;;;;;;;;5116069;27;20040;-51
2022/07/11 09:51:21;;;;;;;1.95;1.45;;;;;;;;;;5110668;27;20102;-48
2022/07/11 09:53:54;;;;;;;3.03;1.58;;;;;;;;;;5116915;27;20146;-52
2022/07/11 09:56:23;;;;;;;2.30;0.88;;;;;;;;;;5114216;28;20077;-51
2022/07/11 09:58:57;;;;;;;3.97;1.25;;;;;;;;;;5114386;27;20051;-50
2022/07/11 10:01:23;;;;;;;9.73;1.45;;;;;;;;;;5112358;28;20046;-51
2022/07/11 10:03:48;;;;;;;3.85;1.55;;;;;;;;;;5119922;27;20039;-52
2022/07/11 10:06:14;;;;;;;1.52;0.90;;;;;;;;;;5113354;27;20044;-51
2022/07/11 10:08:39;;;;;;;1.58;1.13;;;;;;;;;;5115379;27;20171;-50
2022/07/11 10:11:04;;;;;;;1.40;0.93;;;;;;;;;;5116188;27;20527;-49
2022/07/11 10:13:30;;;;;;;2.90;1.30;;;;;;;;;;5115457;27;20221;-47
2022/07/11 10:15:56;;;;;;;2.35;1.00;;;;;;;;;;5115755;27;20039;-50
2022/07/11 10:18:27;;;;;;;2.47;1.25;;;;;;;;;;5119426;27;20453;-50
2022/07/11 10:20:58;;;;;;;3.22;1.40;;;;;;;;;;5113548;27;20502;-50
2022/07/11 10:23:23;;;;;;;;;;;;;;;;;;5112212;27;20035;-51
2022/07/11 10:25:55;;;;;;;3.10;1.77;;;;;;;;;;5114165;27;19918;-47
2022/07/11 10:28:33;;;;;;;1.38;0.85;;;;;;;;;;5096444;28;20033;-53
2022/07/11 10:31:01;;;;;;;1.52;1.20;;;;;;;;;;5116425;27;20040;-49
2022/07/11 10:33:28;;;;;;;3.53;1.50;;;;;;;;;;5115905;27;20112;-51
2022/07/11 10:35:54;;;;;;;2.97;1.30;;;;;;;;;;5115408;27;20455;-51
2022/07/11 10:38:20;;;;;;;3.90;1.58;;;;;;;;;;5112229;28;20114;-46
2022/07/11 10:40:56;;;;;;;3.58;1.48;;;;;;;;;;5113373;28;20440;-49
2022/07/11 10:43:22;;;;;;;0.82;0.70;;;;;;;;;;5112029;28;20035;-48
2022/07/11 10:46:02;;;;;;;1.60;0.90;;;;;;;;;;5115495;27;20388;-51
2022/07/11 10:48:29;;;;;;;2.50;1.50;;;;;;;;;;5111820;27;20050;-52
2022/07/11 10:51:03;;;;;;;3.92;1.27;;;;;;;;;;5116888;27;20062;-51
2022/07/11 10:53:46;;;;;;;1.92;1.30;;;;;;;;;;5112715;28;20781;-46
2022/07/11 10:56:11;;;;;;;3.22;1.05;;;;;;;;;;5115937;27;20058;-50
2022/07/11 10:58:41;;;;;;;2.08;1.27;;;;;;;;;;5116159;28;20047;-49
2022/07/11 11:01:16;;;;;;;2.90;1.45;;;;;;;;;;5116158;27;20043;-49
2022/07/11 11:03:42;;;;;;;1.67;0.80;;;;;;;;;;5116734;28;20092;-52
2022/07/11 11:06:07;;;;;;;1.55;0.77;;;;;;;;;;5115243;27;20043;-53
2022/07/11 11:10:59;;;;;;;1.83;0.88;;;;;;;;;;5119400;27;20126;-51
2022/07/11 11:13:25;;;;;;;3.60;1.52;;;;;;;;;;5118164;27;20096;-48
2022/07/11 11:15:54;;;;;;;2.28;1.65;;;;;;;;;;5114480;27;20059;-49
2022/07/11 11:18:25;;;;;;;1.45;1.15;;;;;;;;;;5116134;27;20162;-48
2022/07/11 11:21:02;;;;;;;5.78;2.15;;;;;;;;;;5112140;28;20046;-48
2022/07/11 11:23:29;;;;;;;4.72;1.25;;;;;;;;;;5113680;28;20135;-46
2022/07/11 11:25:54;;;;;;;5.43;1.50;;;;;;;;;;5115368;27;20063;-49
2022/07/11 11:28:20;;;;;;;1.98;1.52;;;;;;;;;;5115325;27;20716;-49
2022/07/11 11:30:52;;;;;;;7.57;1.95;;;;;;;;;;5112851;28;20392;-49
2022/07/11 11:33:18;;;;;;;3.70;1.45;;;;;;;;;;5116148;27;20502;-52
2022/07/11 11:35:43;;;;;;;8.43;1.40;;;;;;;;;;5112818;27;20057;-46
2022/07/11 11:38:09;;;;;;;2.25;1.05;;;;;;;;;;5112310;27;20043;-52
2022/07/11 11:40:34;;;;;;;2.05;1.63;;;;;;;;;;5112364;28;20051;-50
2022/07/11 11:43:00;;;;;;;5.32;1.00;;;;;;;;;;5111006;27;20043;-52
2022/07/11 11:45:25;;;;;;;1.65;1.10;;;;;;;;;;5111600;27;20039;-52
2022/07/11 11:47:50;;;;;;;1.73;1.02;;;;;;;;;;5117526;27;20095;-53
2022/07/11 11:50:16;;;;;;;2.75;1.10;;;;;;;;;;5113625;27;20067;-50
2022/07/11 11:52:41;;;;;;;3.25;2.08;;;;;;;;;;5112216;27;20490;-50
2022/07/11 11:55:07;;;;;;;4.20;1.25;;;;;;;;;;5109676;27;20574;-52
2022/07/11 11:57:33;;;;;;;1.27;0.57;;;;;;;;;;5109165;27;20064;-51
2022/07/11 11:59:59;;;;;;;1.70;0.90;;;;;;;;;;5111416;27;20035;-49
2022/07/11 12:02:25;;;;;;;1.45;1.02;;;;;;;;;;5110691;27;20488;-50
2022/07/11 12:04:51;;;;;;;3.78;1.20;;;;;;;;;;5109607;27;20047;-52
2022/07/11 12:07:24;;;;;;;2.75;1.27;;;;;;;;;;5110636;27;20028;-53
2022/07/11 12:09:50;;;;;;;9.10;1.35;;;;;;;;;;5114642;27;20096;-52
2022/07/11 12:15:04;;;;;;;3.30;1.33;;;;;;;;;;5115326;27;20469;-49
2022/07/11 12:17:30;;;;;;;8.30;1.20;;;;;;;;;;5110636;27;20047;-52
2022/07/11 12:19:56;;;;;;;1.33;0.70;;;;;;;;;;5113065;27;20363;-52
2022/07/11 12:22:21;;;;;;;3.20;1.10;;;;;;;;;;5110789;27;20048;-51
2022/07/11 12:24:51;;;;;;;2.58;1.27;;;;;;;;;;5113631;28;20167;-52
2022/07/11 12:27:25;;;;;;;5.43;1.45;;;;;;;;;;5110722;27;20119;-47
2022/07/11 12:29:51;;;;;;;5.47;1.30;;;;;;;;;;5111339;27;20046;-49
2022/07/11 12:32:17;;;;;;;1.98;1.48;;;;;;;;;;5112026;27;20048;-47
2022/07/11 12:34:46;;;;;;;6.90;1.38;;;;;;;;;;5114065;27;20051;-51
2022/07/11 12:37:18;;;;;;;2.40;0.95;;;;;;;;;;5109590;27;20042;-49
2022/07/11 12:39:51;;;;;;;1.63;1.10;;;;;;;;;;5115114;28;20047;-47
2022/07/11 12:42:23;;;;;;;1.58;0.95;;;;;;;;;;5111381;28;20485;-46
2022/07/11 12:45:08;;;;;;;5.97;1.23;;;;;;;;;;5107262;27;20118;-49
2022/07/11 12:47:38;;;;;;;3.22;1.15;;;;;;;;;;5111932;27;20051;-48
2022/07/11 12:50:04;;;;;;;;;;;;;;;;;;5111117;27;20039;-50
2022/07/11 12:52:38;;;;;;;11.93;0.68;;;;;;;;;;5113155;27;19920;-44
2022/07/11 12:55:04;;;;;;;1.63;0.80;;;;;;;;;;5112904;27;20123;-45
2022/07/11 12:57:29;;;;;;;1.88;0.98;;;;;;;;;;5112665;27;20142;-45
2022/07/11 12:59:55;;;;;;;1.42;0.90;;;;;;;;;;5116241;27;20052;-47
2022/07/11 13:02:26;;;;;;;2.58;0.45;;;;;;;;;;5112201;27;20118;-45
2022/07/11 13:04:52;;;;;;;2.13;1.10;;;;;;;;;;5111928;27;20088;-45
2022/07/11 13:10:02;;;;;;;1.38;0.88;;;;;;;;;;5117438;28;20172;-50
2022/07/11 13:12:28;;;;;;;1.52;1.05;;;;;;;;;;5093863;28;20455;-45
2022/07/11 13:15:09;;;;;;;3.25;0.77;;;;;;;;;;5111359;27;20046;-43
2022/07/11 13:17:35;;;;;;;0.55;0.45;;;;;;;;;;5112777;27;20064;-45
2022/07/11 13:20:01;;;;;;;1.38;0.63;;;;;;;;;;5113003;27;20107;-47
2022/07/11 13:22:26;;;;;;;0.77;0.68;;;;;;;;;;5112223;27;20044;-51
2022/07/11 13:24:52;;;;;;;0.95;0.50;;;;;;;;;;5119639;27;20091;-47
2022/07/11 13:27:17;;;;;;;1.40;0.90;;;;;;;;;;5119307;27;20089;-46
2022/07/11 13:29:42;;;;;;;16.10;1.45;;;;;;;;;;5119216;27;20054;-45
2022/07/11 13:32:08;;;;;;;4.10;0.52;;;;;;;;;;5118872;27;20101;-45
2022/07/11 13:34:33;;;;;;;2.97;1.58;;;;;;;;;;5117825;27;20042;-42
2022/07/11 13:36:58;;;;;;;1.40;0.82;;;;;;;;;;5112536;27;20043;-45
2022/07/11 13:39:24;;;;;;;8.07;1.20;;;;;;;;;;5120829;27;20583;-42
2022/07/11 13:41:49;;;;;;;3.20;1.60;;;;;;;;;;5116780;27;20050;-43
2022/07/11 13:44:15;;;;;;;3.45;1.13;;;;;;;;;;5113351;27;20039;-43
2022/07/11 13:46:40;;;;;;;1.13;0.85;;;;;;;;;;5113234;27;20062;-45
2022/07/11 13:49:05;;;;;;;1.58;0.60;;;;;;;;;;5115025;27;20044;-43
2022/07/11 13:51:31;;;;;;;1.40;0.82;;;;;;;;;;5122622;27;20062;-43
2022/07/11 13:53:57;;;;;;;1.77;0.98;;;;;;;;;;5120900;27;20083;-44
2022/07/11 13:56:23;;;;;;;0.75;0.50;;;;;;;;;;5115054;27;20108;-43
2022/07/11 13:58:48;;;;;;;1.30;0.80;;;;;;;;;;5118672;27;20035;-44
2022/07/11 14:01:13;;;;;;;1.08;0.77;;;;;;;;;;5119308;27;20039;-45
2022/07/11 14:03:39;;;;;;;1.45;0.60;;;;;;;;;;5117651;27;20052;-43
2022/07/11 14:06:05;;;;;;;0.55;0.55;;;;;;;;;;5121468;27;20502;-44
2022/07/11 14:08:31;;;;;;;0.75;0.50;;;;;;;;;;5117873;27;20525;-45
2022/07/11 14:10:57;;;;;;;0.50;0.38;;;;;;;;;;5116507;27;20043;-45
2022/07/11 14:13:22;;;;;;;2.60;1.40;;;;;;;;;;5119989;27;20043;-47
2022/07/11 14:15:48;;;;;;;1.48;1.13;;;;;;;;;;5115069;27;20141;-45
2022/07/11 14:18:14;;;;;;;2.03;0.98;;;;;;;;;;5120898;27;20118;-45
2022/07/11 14:20:39;;;;;;;1.50;0.70;;;;;;;;;;5115379;27;20056;-47
2022/07/11 14:23:05;;;;;;;1.83;0.80;;;;;;;;;;5120588;27;20127;-45
2022/07/11 14:25:30;;;;;;;1.83;0.90;;;;;;;;;;5117347;27;20091;-44
2022/07/11 14:27:55;;;;;;;4.00;0.90;;;;;;;;;;5098968;27;20064;-45
2022/07/11 14:30:21;;;;;;;1.13;0.70;;;;;;;;;;5117454;27;20042;-47
2022/07/11 14:32:46;;;;;;;0.82;0.63;;;;;;;;;;5116495;27;20044;-47
2022/07/11 14:35:11;;;;;;;0.95;0.60;;;;;;;;;;5115095;27;20609;-48
2022/07/11 14:37:37;;;;;;;2.30;1.23;;;;;;;;;;5115433;27;20040;-44
2022/07/11 14:40:03;;;;;;;0.82;0.52;;;;;;;;;;5118679;27;20046;-46
2022/07/11 14:42:28;;;;;;;2.72;1.02;;;;;;;;;;5115699;27;20134;-45
2022/07/11 14:44:53;;;;;;;1.23;0.70;;;;;;;;;;5116405;27;20039;-46
2022/07/11 14:47:19;;;;;;;1.45;0.93;;;;;;;;;;5112079;28;20126;-48
2022/07/11 14:49:44;;;;;;;1.17;0.77;;;;;;;;;;5111165;27;20051;-44
2022/07/11 14:52:09;;;;;;;1.25;0.80;;;;;;;;;;5116002;28;20529;-43
2022/07/11 14:54:35;;;;;;;0.75;0.63;;;;;;;;;;5116534;28;20066;-46
2022/07/11 14:57:01;;;;;;;0.25;0.20;;;;;;;;;;5112310;27;20521;-46